| time (UTC) | temp C | wind direction | speed KPH | gust KPH | rain 1hr cm | rain 24hr cm | rain mn cm | humidity % | barometer mb |
| 20260904181523 | 25 | 155 | 0.0 | 3.2 | 0.00 | 0.00 | 0.00 | 63 | 1003.0 |
| 20260904180020 | 25 | 139 | 0.0 | 3.2 | 0.00 | 0.00 | 0.00 | 65 | 1003.2 |
| 20260904174515 | 25 | 142 | 0.0 | 3.2 | 0.00 | 0.00 | 0.00 | 65 | 1003.2 |
| 20260904173013 | 23 | 179 | 0.0 | 1.6 | 0.00 | 0.00 | 0.00 | 67 | 1003.2 |
| 20260904171512 | 23 | 266 | 0.0 | 3.2 | 0.00 | 0.00 | 0.00 | 68 | 1003.1 |
| 20260904170009 | 23 | 266 | 1.6 | 4.8 | 0.00 | 0.00 | 0.00 | 70 | 1002.9 |
| 20260904164507 | 23 | 155 | 0.0 | 4.8 | 0.00 | 0.00 | 0.00 | 69 | 1002.7 |
| 20260904163004 | 23 | 273 | 0.0 | 3.2 | 0.00 | 0.00 | 0.00 | 72 | 1002.6 |
| 20260904161600 | 23 | 61 | 0.0 | 3.2 | 0.00 | 0.00 | 0.00 | 74 | 1002.6 |
| 20260904160057 | 22 | 61 | 0.0 | 1.6 | 0.00 | 0.00 | 0.00 | 77 | 1002.5 |
| 20260904154555 | 22 | 61 | 0.0 | 4.8 | 0.00 | 0.00 | 0.00 | 78 | 1002.5 |
| 20260904153107 | 21 | 58 | 0.0 | 4.8 | 0.00 | 0.00 | 0.00 | 80 | 1002.6 |
| 20260904151547 | 20 | 55 | 0.0 | 4.8 | 0.00 | 0.00 | 0.00 | 81 | 1002.5 |
| 20260904150047 | 20 | 53 | 1.6 | 4.8 | 0.00 | 0.00 | 0.00 | 82 | 1002.4 |
| 20260904144542 | 19 | 265 | 1.6 | 6.4 | 0.00 | 0.00 | 0.00 | 84 | 1002.3 |
| 20260904143039 | 18 | 260 | 0.0 | 1.6 | 0.00 | 0.00 | 0.00 | 84 | 1002.1 |
| 20260904141534 | 18 | 260 | 0.0 | 1.6 | 0.00 | 0.00 | 0.00 | 79 | 1001.9 |
| 20260904140035 | 17 | 260 | 0.0 | 0.0 | 0.00 | 0.00 | 0.00 | 78 | 1001.9 |
| 20260904134535 | 17 | 259 | 0.0 | 0.0 | 0.00 | 0.00 | 0.00 | 81 | 1001.7 |
| 20260904133030 | 17 | 260 | 0.0 | 0.0 | 0.00 | 0.00 | 0.00 | 82 | 1001.6 |
| 20260904131539 | 17 | 260 | 0.0 | 0.0 | 0.00 | 0.00 | 0.00 | 82 | 1001.7 |
| 20260904130027 | 17 | 260 | 0.0 | 0.0 | 0.00 | 0.00 | 0.00 | 82 | 1001.6 |
| 20260904124527 | 17 | 259 | 0.0 | 0.0 | 0.00 | 0.00 | 0.00 | 82 | 1001.5 |
| 20260904123026 | 17 | 260 | 0.0 | 0.0 | 0.00 | 0.00 | 0.00 | 83 | 1001.4 |
| 20260904121525 | 17 | 260 | 0.0 | 0.0 | 0.00 | 0.00 | 0.00 | 83 | 1001.3 |
| 20260904120025 | 17 | 260 | 0.0 | 0.0 | 0.00 | 0.00 | 0.00 | 83 | 1001.2 |
| 20260904114524 | 17 | 260 | 0.0 | 0.0 | 0.00 | 0.00 | 0.00 | 84 | 1001.4 |
| 20260904113036 | 17 | 260 | 0.0 | 0.0 | 0.00 | 0.00 | 0.00 | 84 | 1001.4 |
| 20260904111533 | 17 | 260 | 0.0 | 0.0 | 0.00 | 0.00 | 0.00 | 85 | 1001.4 |
| 20260904110022 | 17 | 260 | 0.0 | 0.0 | 0.00 | 0.00 | 0.00 | 86 | 1001.4 |
| 20260904104522 | 17 | 260 | 0.0 | 0.0 | 0.00 | 0.00 | 0.00 | 86 | 1001.4 |
| 20260904103021 | 17 | 260 | 0.0 | 0.0 | 0.00 | 0.00 | 0.00 | 86 | 1001.3 |
| 20260904101521 | 17 | 260 | 0.0 | 0.0 | 0.00 | 0.00 | 0.00 | 86 | 1001.2 |
| 20260904100020 | 17 | 260 | 0.0 | 0.0 | 0.00 | 0.00 | 0.00 | 86 | 1001.3 |
| 20260904094529 | 17 | 260 | 0.0 | 0.0 | 0.00 | 0.00 | 0.00 | 86 | 1001.3 |
| 20260904093018 | 17 | 260 | 0.0 | 0.0 | 0.00 | 0.00 | 0.00 | 87 | 1001.3 |
| 20260904091517 | 17 | 260 | 0.0 | 0.0 | 0.00 | 0.00 | 0.00 | 87 | 1001.3 |
| 20260904090015 | 17 | 260 | 0.0 | 0.0 | 0.00 | 0.00 | 0.00 | 87 | 1001.2 |
| 20260904084515 | 17 | 260 | 0.0 | 0.0 | 0.00 | 0.00 | 0.00 | 86 | 1001.3 |
| 20260904083022 | 17 | 260 | 0.0 | 0.0 | 0.00 | 0.00 | 0.00 | 86 | 1001.3 |
| 20260904081511 | 17 | 259 | 0.0 | 0.0 | 0.00 | 0.00 | 0.00 | 86 | 1001.4 |
| 20260904080010 | 17 | 259 | 0.0 | 0.0 | 0.00 | 0.00 | 0.00 | 86 | 1001.4 |
| 20260904074510 | 17 | 260 | 0.0 | 0.0 | 0.00 | 0.00 | 0.00 | 86 | 1001.5 |
| 20260904073007 | 17 | 260 | 0.0 | 0.0 | 0.00 | 0.00 | 0.00 | 85 | 1001.5 |
| 20260904071509 | 18 | 260 | 0.0 | 0.0 | 0.00 | 0.00 | 0.00 | 86 | 1001.4 |
| 20260904070004 | 18 | 260 | 0.0 | 0.0 | 0.00 | 0.00 | 0.00 | 85 | 1001.5 |
| 20260904064507 | 18 | 260 | 0.0 | 0.0 | 0.00 | 0.00 | 0.00 | 85 | 1001.3 |
| 20260904063003 | 18 | 260 | 0.0 | 0.0 | 0.00 | 0.00 | 0.00 | 85 | 1001.3 |
| 20260904061501 | 18 | 260 | 0.0 | 0.0 | 0.00 | 0.00 | 0.00 | 84 | 1001.3 |
| 20260904060002 | 18 | 260 | 0.0 | 0.0 | 0.00 | 0.00 | 0.00 | 84 | 1001.1 |
| 20260904054501 | 18 | 260 | 0.0 | 0.0 | 0.00 | 0.00 | 0.00 | 83 | 1001.2 |
| 20260904053001 | 18 | 260 | 0.0 | 0.0 | 0.00 | 0.00 | 0.00 | 83 | 1001.2 |
| 20260904051600 | 19 | 260 | 0.0 | 0.0 | 0.00 | 0.00 | 0.00 | 83 | 1001.3 |
| 20260904050100 | 19 | 260 | 0.0 | 0.0 | 0.00 | 0.00 | 0.00 | 82 | 1001.3 |
| 20260904044600 | 20 | 259 | 0.0 | 3.2 | 0.00 | 0.00 | 0.00 | 82 | 1001.3 |
| 20260904043104 | 20 | 260 | 0.0 | 1.6 | 0.00 | 0.00 | 0.00 | 82 | 1001.1 |
| 20260904041605 | 20 | 261 | 0.0 | 1.6 | 0.00 | 0.00 | 0.00 | 82 | 1001.1 |
| 20260904040058 | 20 | 263 | 1.6 | 8.0 | 0.00 | 0.00 | 0.00 | 83 | 1000.9 |
| 20260904034557 | 20 | 259 | 0.0 | 4.8 | 0.00 | 0.00 | 0.00 | 82 | 1000.8 |
| 20260904033057 | 20 | 254 | 0.0 | 6.4 | 0.00 | 0.00 | 0.00 | 82 | 1000.7 |
| 20260904031603 | 20 | 262 | 0.0 | 6.4 | 0.00 | 0.00 | 0.00 | 82 | 1000.6 |
| 20260904030056 | 20 | 249 | 0.0 | 6.4 | 0.00 | 0.00 | 0.00 | 82 | 1000.5 |
| 20260904024601 | 20 | 241 | 0.0 | 11.3 | 0.00 | 0.00 | 0.00 | 82 | 1000.5 |
| 20260904023055 | 21 | 248 | 3.2 | 9.7 | 0.00 | 0.00 | 0.00 | 80 | 1000.4 |
| 20260904021555 | 21 | 245 | 0.0 | 3.2 | 0.00 | 0.00 | 0.00 | 78 | 1000.4 |
| 20260904020100 | 21 | 245 | 0.0 | 8.0 | 0.00 | 0.00 | 0.00 | 77 | 1000.4 |
| 20260904014617 | 22 | 249 | 0.0 | 6.4 | 0.00 | 0.00 | 0.00 | 75 | 1000.5 |
| 20260904013116 | 22 | 252 | 1.6 | 9.7 | 0.00 | 0.00 | 0.00 | 74 | 1000.6 |
| 20260904011552 | 22 | 256 | 0.0 | 8.0 | 0.00 | 0.00 | 0.00 | 72 | 1000.5 |
| 20260904010105 | 23 | 242 | 0.0 | 1.6 | 0.00 | 0.00 | 0.00 | 71 | 1000.5 |
| 20260904004551 | 23 | 192 | 0.0 | 6.4 | 0.00 | 0.00 | 0.00 | 71 | 1000.6 |
| 20260904003057 | 23 | 213 | 0.0 | 9.7 | 0.00 | 0.00 | 0.00 | 71 | 1000.6 |
| 20260904001550 | 24 | 236 | 3.2 | 12.9 | 0.00 | 0.00 | 0.00 | 70 | 1000.7 |
| 20260904000050 | 24 | 189 | 0.0 | 6.4 | 0.00 | 0.00 | 0.00 | 71 | 1000.8 |
| 20260903234548 | 24 | 244 | 8.0 | 14.5 | 0.00 | 0.00 | 0.00 | 70 | 1000.9 |
| 20260903233050 | 24 | 249 | 0.0 | 9.7 | 0.00 | 0.00 | 0.00 | 72 | 1000.9 |
| 20260903231546 | 24 | 250 | 1.6 | 14.5 | 0.00 | 0.00 | 0.00 | 72 | 1001.1 |
| 20260903230044 | 24 | 248 | 1.6 | 12.9 | 0.00 | 0.00 | 0.00 | 70 | 1001.1 |
| 20260903224543 | 24 | 180 | 0.0 | 12.9 | 0.00 | 0.00 | 0.00 | 70 | 1001.3 |
| 20260903223048 | 23 | 171 | 0.0 | 16.1 | 0.00 | 0.00 | 0.00 | 72 | 1001.4 |
| 20260903221540 | 24 | 197 | 1.6 | 9.7 | 0.00 | 0.00 | 0.00 | 70 | 1001.6 |
| 20260903220038 | 24 | 250 | 6.4 | 16.1 | 0.00 | 0.00 | 0.00 | 70 | 1001.7 |
| 20260903214541 | 24 | 255 | 1.6 | 12.9 | 0.00 | 0.00 | 0.00 | 70 | 1001.8 |
| 20260903213043 | 24 | 244 | 0.0 | 16.1 | 0.00 | 0.00 | 0.00 | 71 | 1001.8 |
| 20260903211541 | 25 | 245 | 4.8 | 11.3 | 0.00 | 0.00 | 0.00 | 69 | 1001.8 |
| 20260903210035 | 25 | 246 | 3.2 | 12.9 | 0.00 | 0.00 | 0.00 | 68 | 1002.0 |
| 20260903204533 | 26 | 184 | 0.0 | 9.7 | 0.00 | 0.00 | 0.00 | 66 | 1002.1 |
| 20260903203033 | 26 | 254 | 0.0 | 12.9 | 0.00 | 0.00 | 0.00 | 66 | 1002.0 |
| 20260903201531 | 26 | 181 | 0.0 | 4.8 | 0.00 | 0.00 | 0.00 | 65 | 1002.0 |
| 20260903200030 | 26 | 236 | 0.0 | 4.8 | 0.00 | 0.00 | 0.00 | 65 | 1002.1 |
| 20260903194529 | 26 | 236 | 1.6 | 16.1 | 0.00 | 0.00 | 0.00 | 66 | 1002.2 |
| 20260903193027 | 25 | 261 | 4.8 | 11.3 | 0.00 | 0.00 | 0.00 | 66 | 1002.5 |
| 20260903191528 | 25 | 234 | 0.0 | 11.3 | 0.00 | 0.00 | 0.00 | 66 | 1002.7 |
| 20260903190024 | 26 | 241 | 4.8 | 11.3 | 0.00 | 0.00 | 0.00 | 63 | 1002.9 |
| 20260903184522 | 26 | 146 | 0.0 | 4.8 | 0.00 | 0.00 | 0.00 | 62 | 1003.0 |
| 20260903183020 | 25 | 80 | 1.6 | 8.0 | 0.00 | 0.00 | 0.00 | 62 | 1003.2 |